Time;durP1;ratioP1;P1;durP2;ratioP2;P2;SDS_P1;SDS_P2;PMS_P1;PMS_P2;Temp;Humidity;BMP_temperature;BMP_pressure;BME280_temperature;BME280_humidity;BME280_pressure;Samples;Min_cycle;Max_cycle;Signal;HPM_P1;HPM_P2
2022/11/30 00:03:45;;;;;;;32.37;16.93;;;;;;;;;;20993766;28;20234;-77
2022/11/30 00:13:47;;;;;;;35.03;17.13;;;8.40;99.90;;;;;;20993336;28;20207;-76
2022/11/30 00:23:50;;;;;;;32.00;17.33;;;8.30;99.90;;;;;;20996341;28;20231;-78
2022/11/30 00:33:51;;;;;;;37.83;18.43;;;8.30;99.90;;;;;;21008037;28;20271;-76
2022/11/30 00:43:53;;;;;;;33.57;18.30;;;8.30;99.90;;;;;;21006548;28;20608;-73
2022/11/30 00:57:31;;;;;;;33.70;18.30;;;8.30;99.90;;;;;;20984969;28;21114;-75
2022/11/30 01:07:33;;;;;;;31.50;17.87;;;8.40;99.90;;;;;;20984023;28;20580;-75
2022/11/30 01:17:35;;;;;;;33.03;17.57;;;8.40;99.90;;;;;;20983080;28;20739;-75
2022/11/30 01:31:28;;;;;;;32.60;17.00;;;8.40;99.90;;;;;;20984596;28;20561;-74
2022/11/30 01:41:31;;;;;;;31.47;16.60;;;8.40;99.90;;;;;;20983674;28;20655;-74
2022/11/30 01:51:59;;;;;;;29.70;16.70;;;8.40;99.90;;;;;;20983419;28;20206;-75
2022/11/30 02:02:01;;;;;;;31.97;17.33;;;8.40;99.90;;;;;;20976586;28;20236;-74
2022/11/30 02:12:06;;;;;;;31.77;16.93;;;8.40;99.90;;;;;;20982354;28;20215;-73
2022/11/30 02:22:41;;;;;;;30.10;16.23;;;8.40;99.90;;;;;;20981102;28;20247;-75
2022/11/30 02:32:49;;;;;;;31.67;16.67;;;8.50;99.90;;;;;;20979383;28;20208;-75
2022/11/30 02:42:53;;;;;;;30.73;16.60;;;8.50;99.90;;;;;;20923632;28;20579;-76
2022/11/30 02:52:55;;;;;;;33.57;17.13;;;8.50;99.90;;;;;;20923532;28;20207;-76
2022/11/30 03:02:56;;;;;;;31.67;16.47;;;8.40;99.90;;;;;;20922235;28;20232;-75
2022/11/30 03:12:58;;;;;;;29.50;16.70;;;8.40;99.90;;;;;;20921596;28;20238;-74
2022/11/30 03:23:01;;;;;;;33.47;17.10;;;8.40;99.90;;;;;;20921242;28;20246;-75
2022/11/30 03:33:02;;;;;;;32.80;16.43;;;8.40;99.90;;;;;;20920277;28;20653;-75
2022/11/30 03:52:09;;;;;;;34.13;17.23;;;8.40;99.90;;;;;;20985069;28;20566;-74
2022/11/30 04:02:10;;;;;;;38.20;18.27;;;8.40;99.90;;;;;;20983635;28;20224;-74
2022/11/30 04:12:12;;;;;;;36.17;18.07;;;8.50;99.90;;;;;;20983153;28;20641;-76
2022/11/30 04:22:14;;;;;;;37.60;18.30;;;8.40;99.90;;;;;;20982390;28;20199;-76
2022/11/30 04:32:15;;;;;;;38.77;17.33;;;8.30;99.90;;;;;;20981369;28;20222;-74
2022/11/30 04:42:17;;;;;;;44.57;18.93;;;8.30;99.90;;;;;;20979926;28;20203;-75
2022/11/30 04:52:19;;;;;;;44.53;18.07;;;8.30;99.90;;;;;;20979796;28;20234;-75
2022/11/30 05:02:21;;;;;;;42.40;17.90;;;8.40;99.90;;;;;;20930466;28;20281;-76
2022/11/30 05:12:22;;;;;;;44.80;18.40;;;8.40;99.90;;;;;;20923204;28;20212;-75
2022/11/30 05:29:50;;;;;;;44.80;18.80;;;8.50;99.90;;;;;;21068108;28;20567;-75
2022/11/30 05:39:52;;;;;;;43.77;18.30;;;8.50;99.90;;;;;;21067527;28;20658;-73
2022/11/30 05:49:53;;;;;;;44.33;18.77;;;8.50;99.90;;;;;;21067033;28;20203;-75
2022/11/30 05:59:55;;;;;;;42.60;19.03;;;8.50;99.90;;;;;;21064067;28;20199;-74
2022/11/30 06:09:57;;;;;;;41.90;19.17;;;8.50;99.90;;;;;;21064003;28;20264;-75
2022/11/30 06:19:58;;;;;;;42.93;20.33;;;8.60;99.90;;;;;;21013208;28;20203;-72
2022/11/30 06:30:00;;;;;;;41.03;19.87;;;8.60;99.90;;;;;;21044802;28;20277;-70
2022/11/30 06:40:02;;;;;;;38.47;19.67;;;8.60;99.90;;;;;;20930659;28;20613;-71
2022/11/30 06:50:08;;;;;;;38.57;18.50;;;8.60;99.90;;;;;;20964230;28;20211;-74
2022/11/30 07:00:11;;;;;;;36.07;17.83;;;8.60;99.90;;;;;;21004240;28;20204;-75
2022/11/30 07:10:13;;;;;;;32.13;18.73;;;8.60;99.90;;;;;;21001539;28;20214;-75
2022/11/30 07:20:20;;;;;;;36.30;18.37;;;8.70;99.90;;;;;;21002814;28;20250;-75
2022/11/30 07:30:22;;;;;;;35.13;19.30;;;8.70;99.90;;;;;;21000684;28;20227;-74
2022/11/30 07:40:24;;;;;;;29.27;17.73;;;8.70;99.90;;;;;;21000154;28;20748;-75
2022/11/30 07:53:20;;;;;;;37.80;17.63;;;8.70;99.90;;;;;;20982709;28;20567;-74
2022/11/30 08:03:22;;;;;;;31.67;17.70;;;8.70;99.90;;;;;;20981626;28;20208;-74
2022/11/30 08:13:24;;;;;;;32.53;17.63;;;;;;;;;;20981984;28;20219;-74
2022/11/30 08:23:31;;;;;;;30.23;18.13;;;8.70;99.90;;;;;;20980984;28;20203;-73
2022/11/30 08:33:34;;;;;;;30.13;16.97;;;8.70;99.90;;;;;;20980354;28;20223;-69
2022/11/30 08:43:36;;;;;;;31.23;17.87;;;8.80;99.90;;;;;;20977227;28;20331;-75
2022/11/30 08:53:38;;;;;;;35.77;18.57;;;8.80;99.90;;;;;;20977128;28;20216;-75
2022/11/30 09:03:41;;;;;;;31.83;17.43;;;8.80;99.90;;;;;;20928257;28;20216;-75
2022/11/30 09:13:43;;;;;;;33.90;18.23;;;8.80;99.90;;;;;;20920998;28;20307;-74
2022/11/30 09:23:46;;;;;;;38.53;20.37;;;8.70;99.90;;;;;;20927153;28;20232;-74
2022/11/30 09:33:48;;;;;;;31.07;16.17;;;8.80;99.90;;;;;;20925275;28;20253;-73
2022/11/30 09:43:50;;;;;;;37.17;21.17;;;8.70;99.90;;;;;;20917324;28;20232;-74
2022/11/30 09:54:01;;;;;;;31.43;18.33;;;8.70;99.90;;;;;;20916766;28;20208;-73
2022/11/30 10:04:02;;;;;;;26.60;16.97;;;8.90;99.90;;;;;;20917825;28;20269;-74
2022/11/30 10:14:21;;;;;;;29.93;17.40;;;8.90;99.90;;;;;;20915896;28;20222;-74
2022/11/30 10:24:45;;;;;;;35.03;19.43;;;8.90;99.90;;;;;;20916655;28;20253;-73
2022/11/30 10:35:00;;;;;;;27.33;15.73;;;8.80;99.90;;;;;;20916097;28;20242;-74
2022/11/30 10:45:10;;;;;;;24.30;15.27;;;8.80;99.90;;;;;;20914614;28;20734;-73
2022/11/30 10:55:22;;;;;;;24.10;15.00;;;8.90;99.90;;;;;;20914091;28;20207;-75
2022/11/30 11:05:31;;;;;;;28.60;16.63;;;9.00;99.90;;;;;;20914018;28;20255;-74
2022/11/30 11:15:33;;;;;;;23.90;15.17;;;9.00;99.90;;;;;;20912272;28;20205;-73
2022/11/30 11:25:41;;;;;;;25.90;15.70;;;9.10;99.90;;;;;;20909613;28;20242;-74
2022/11/30 11:35:46;;;;;;;22.97;15.07;;;9.10;99.90;;;;;;20910795;28;20550;-72
2022/11/30 11:45:57;;;;;;;25.00;14.57;;;9.00;99.90;;;;;;20910185;28;20253;-73
2022/11/30 11:56:08;;;;;;;24.57;15.20;;;9.00;99.90;;;;;;20910009;28;20218;-73
2022/11/30 12:06:16;;;;;;;23.23;13.87;;;9.00;99.90;;;;;;20909324;28;20239;-74
2022/11/30 12:17:12;;;;;;;24.63;15.63;;;9.00;99.90;;;;;;20909194;28;20212;-72
2022/11/30 12:27:26;;;;;;;23.90;14.20;;;9.00;99.80;;;;;;20891000;28;20332;-72
2022/11/30 12:37:43;;;;;;;24.77;14.20;;;9.00;99.50;;;;;;20920929;28;20214;-74
2022/11/30 12:47:54;;;;;;;25.23;15.40;;;9.00;99.30;;;;;;20924061;28;20290;-73
2022/11/30 12:58:11;;;;;;;31.80;14.23;;;9.00;99.20;;;;;;20922697;28;20207;-74
2022/11/30 13:08:34;;;;;;;23.63;14.33;;;9.00;99.10;;;;;;20925509;28;20240;-76
2022/11/30 13:18:36;;;;;;;24.67;13.73;;;8.90;98.90;;;;;;20922010;28;20232;-74
2022/11/30 13:43:27;;;;;;;22.50;13.77;;;8.90;98.70;;;;;;21408669;27;20285;-73
2022/11/30 13:53:36;;;;;;;21.43;12.90;;;8.80;98.60;;;;;;21320519;27;20563;-74
2022/11/30 14:03:37;;;;;;;19.77;12.50;;;8.80;98.60;;;;;;21319384;27;20314;-74
2022/11/30 14:13:40;;;;;;;19.93;12.83;;;8.80;98.50;;;;;;21318597;27;20204;-73
2022/11/30 14:24:11;;;;;;;20.10;13.40;;;9.60;98.80;;;;;;21318612;27;20201;-72
2022/11/30 14:34:15;;;;;;;25.27;14.90;;;8.70;98.40;;;;;;21317908;27;20229;-72
2022/11/30 14:44:17;;;;;;;27.40;14.80;;;8.70;98.40;;;;;;21316921;27;20640;-72
2022/11/30 14:54:25;;;;;;;20.43;12.60;;;8.70;98.40;;;;;;21260898;27;20245;-73
2022/11/30 15:04:28;;;;;;;22.87;11.80;;;8.70;98.40;;;;;;21258653;27;20214;-73
2022/11/30 15:14:30;;;;;;;18.27;11.33;;;8.60;98.40;;;;;;21257229;27;20230;-74
2022/11/30 15:24:32;;;;;;;17.87;10.97;;;8.60;98.40;;;;;;21257086;27;20618;-74
2022/11/30 15:34:47;;;;;;;18.67;9.87;;;8.60;98.40;;;;;;21256034;27;20287;-73
2022/11/30 15:45:22;;;;;;;16.93;9.73;;;8.50;98.30;;;;;;21254785;27;20553;-75
2022/11/30 15:55:47;;;;;;;18.80;9.53;;;8.40;98.10;;;;;;21254245;27;20259;-75
2022/11/30 16:05:56;;;;;;;16.07;9.83;;;8.40;98.00;;;;;;21252814;27;20231;-73
2022/11/30 16:15:59;;;;;;;15.90;9.70;;;8.30;98.10;;;;;;21251587;27;20243;-75
2022/11/30 16:26:01;;;;;;;20.80;11.63;;;8.40;98.10;;;;;;21312349;27;20218;-73
2022/11/30 16:36:07;;;;;;;19.23;11.60;;;8.30;98.00;;;;;;21336237;27;20655;-73
2022/11/30 16:46:11;;;;;;;17.67;10.17;;;8.20;98.00;;;;;;21338651;27;20199;-74
2022/11/30 16:56:14;;;;;;;18.80;10.77;;;8.30;98.00;;;;;;21334601;27;20234;-71
2022/11/30 17:06:19;;;;;;;19.63;10.60;;;8.20;97.90;;;;;;21334394;27;20200;-72
2022/11/30 17:16:21;;;;;;;24.83;13.43;;;8.20;98.00;;;;;;21333496;27;20231;-74
2022/11/30 17:26:23;;;;;;;19.03;11.47;;;8.10;97.80;;;;;;21191558;27;20214;-71
2022/11/30 17:36:25;;;;;;;20.23;11.80;;;8.10;97.80;;;;;;21162092;28;20259;-68
2022/11/30 17:46:27;;;;;;;25.53;13.87;;;8.00;97.60;;;;;;21162534;28;20209;-73
2022/11/30 17:56:29;;;;;;;21.40;13.13;;;7.90;97.40;;;;;;21161641;28;20249;-71
2022/11/30 18:06:31;;;;;;;25.43;13.90;;;7.80;97.20;;;;;;21161263;28;20273;-72
2022/11/30 18:16:35;;;;;;;29.47;15.03;;;7.80;97.30;;;;;;21161725;28;20283;-78
2022/11/30 18:26:38;;;;;;;26.73;15.17;;;7.80;97.10;;;;;;21171234;28;20568;-70
2022/11/30 18:36:39;;;;;;;27.53;14.13;;;7.70;97.00;;;;;;21175938;28;20237;-67
2022/11/30 18:50:45;;;;;;;26.37;14.73;;;7.60;96.80;;;;;;21135756;27;20663;-73
2022/11/30 19:00:47;;;;;;;25.67;14.87;;;7.50;96.70;;;;;;21063244;28;20214;-71
2022/11/30 19:10:49;;;;;;;27.87;15.37;;;7.50;96.70;;;;;;21062702;28;20570;-75
2022/11/30 19:20:50;;;;;;;31.63;16.57;;;7.50;96.60;;;;;;21063136;28;20684;-78
2022/11/30 19:30:52;;;;;;;38.57;19.27;;;7.50;96.50;;;;;;21048047;28;20211;-75
2022/11/30 19:40:54;;;;;;;30.27;16.87;;;7.50;96.50;;;;;;21025876;28;20202;-74
2022/11/30 19:50:55;;;;;;;25.80;14.10;;;7.40;96.30;;;;;;21060402;28;20210;-73
2022/11/30 20:00:57;;;;;;;29.90;15.70;;;7.40;96.60;;;;;;21012629;28;20214;-76
2022/11/30 20:10:59;;;;;;;26.40;15.40;;;7.40;96.10;;;;;;21009028;28;20678;-75
2022/11/30 20:21:24;;;;;;;35.10;17.20;;;7.40;95.80;;;;;;21011062;28;20565;-75
2022/11/30 20:31:27;;;;;;;28.17;16.03;;;7.30;95.80;;;;;;21003643;28;20203;-73
2022/11/30 20:41:29;;;;;;;25.70;15.50;;;7.40;95.70;;;;;;21003484;28;20296;-75
2022/11/30 20:51:33;;;;;;;23.00;13.73;;;7.30;95.40;;;;;;21002425;28;20235;-75
2022/11/30 21:01:35;;;;;;;23.73;14.17;;;7.20;94.90;;;;;;21002101;28;20276;-76
2022/11/30 21:11:37;;;;;;;23.40;14.27;;;7.10;94.70;;;;;;21000068;28;20204;-75
2022/11/30 21:21:38;;;;;;;23.93;14.53;;;7.00;94.90;;;;;;20999707;28;20228;-77
2022/11/30 21:31:41;;;;;;;24.20;14.13;;;6.90;94.20;;;;;;20999824;28;20665;-76
2022/11/30 21:41:43;;;;;;;24.00;14.13;;;6.90;94.10;;;;;;20998565;28;20658;-76
2022/11/30 21:51:45;;;;;;;26.17;14.93;;;7.00;94.00;;;;;;20998054;28;20202;-75
2022/11/30 22:01:47;;;;;;;27.27;15.50;;;7.00;93.70;;;;;;20997434;28;20264;-75
2022/11/30 22:11:48;;;;;;;26.13;16.03;;;6.80;93.60;;;;;;20996695;28;20586;-76
2022/11/30 22:21:50;;;;;;;25.77;16.13;;;6.90;93.70;;;;;;20995847;28;20698;-76
2022/11/30 22:31:53;;;;;;;26.67;15.23;;;6.90;93.60;;;;;;20994013;28;20460;-80
2022/11/30 22:41:54;;;;;;;24.20;15.50;;;7.00;93.50;;;;;;20993875;28;20286;-79
2022/11/30 22:51:57;;;;;;;24.97;15.73;;;6.90;93.40;;;;;;20995023;28;20210;-79
2022/11/30 23:01:59;;;;;;;26.97;16.13;;;6.90;93.20;;;;;;20994908;28;20697;-79
2022/11/30 23:12:00;;;;;;;28.67;16.87;;;6.80;93.10;;;;;;20994113;28;20207;-79
2022/11/30 23:22:02;;;;;;;25.97;16.57;;;6.80;93.30;;;;;;20994177;28;20757;-79
2022/11/30 23:32:04;;;;;;;30.27;16.97;;;6.80;93.30;;;;;;21005467;28;20215;-78
2022/11/30 23:42:06;;;;;;;26.93;16.07;;;6.70;93.20;;;;;;21018610;28;20243;-78
2022/11/30 23:52:07;;;;;;;28.33;15.70;;;6.70;93.20;;;;;;21007635;28;20222;-79
